Time;durP1;ratioP1;P1;durP2;ratioP2;P2;SDS_P1;SDS_P2;PMS_P1;PMS_P2;Temp;Humidity;BMP_temperature;BMP_pressure;BME280_temperature;BME280_humidity;BME280_pressure;Samples;Min_cycle;Max_cycle;Signal;HPM_P1;HPM_P2
2022/08/27 00:00:31;;;;;;;6.10;5.90;;;25.90;65.00;;;;;;5108187;27;43972;-74
2022/08/27 00:02:59;;;;;;;6.15;5.95;;;25.90;65.00;;;;;;5107334;27;44103;-75
2022/08/27 00:05:27;;;;;;;6.13;5.93;;;25.90;65.20;;;;;;5108884;27;43892;-74
2022/08/27 00:07:55;;;;;;;6.60;6.30;;;25.80;65.30;;;;;;5083284;28;43970;-75
2022/08/27 00:10:24;;;;;;;6.32;6.07;;;25.80;65.10;;;;;;5069871;28;45656;-74
2022/08/27 00:12:54;;;;;;;5.90;5.70;;;25.90;64.80;;;;;;5087507;28;44003;-73
2022/08/27 00:15:22;;;;;;;5.87;5.67;;;26.00;64.50;;;;;;5076449;28;43945;-73
2022/08/27 00:17:50;;;;;;;6.50;6.00;;;26.10;64.20;;;;;;5087939;28;44103;-74
2022/08/27 00:20:20;;;;;;;5.80;5.60;;;26.10;64.20;;;;;;5087988;28;43965;-74
2022/08/27 00:22:48;;;;;;;6.35;6.10;;;26.00;64.30;;;;;;5087575;27;43900;-73
2022/08/27 00:25:16;;;;;;;5.60;5.40;;;26.00;64.60;;;;;;5108187;27;43374;-74
2022/08/27 00:27:44;;;;;;;6.27;6.07;;;25.90;64.60;;;;;;5088230;27;43965;-74
2022/08/27 00:30:15;;;;;;;5.90;5.70;;;25.90;64.50;;;;;;5101667;27;43893;-74
2022/08/27 00:32:44;;;;;;;5.87;5.67;;;25.90;65.50;;;;;;5088669;27;44759;-74
2022/08/27 00:35:13;;;;;;;6.23;5.93;;;25.90;65.10;;;;;;5100760;27;43912;-74
2022/08/27 00:37:41;;;;;;;6.00;5.80;;;25.90;65.10;;;;;;5069688;27;43998;-74
2022/08/27 00:40:11;;;;;;;6.17;5.93;;;25.80;65.00;;;;;;5069967;27;45828;-74
2022/08/27 00:42:41;;;;;;;6.43;6.13;;;25.90;65.10;;;;;;5088682;27;43992;-75
2022/08/27 00:45:10;;;;;;;5.63;5.43;;;25.80;65.30;;;;;;5087568;27;43940;-73
2022/08/27 00:47:45;;;;;;;5.55;5.35;;;25.80;65.20;;;;;;5108138;27;43982;-74
2022/08/27 00:50:14;;;;;;;6.07;5.88;;;25.90;64.90;;;;;;5107388;27;45279;-74
2022/08/27 00:52:45;;;;;;;6.40;6.10;;;26.00;64.30;;;;;;5107739;27;44325;-74
2022/08/27 00:55:16;;;;;;;6.05;5.80;;;26.10;64.10;;;;;;5107684;27;43954;-75
2022/08/27 00:57:45;;;;;;;6.00;5.80;;;26.10;64.00;;;;;;5107442;27;44011;-74
2022/08/27 01:00:15;;;;;;;5.40;5.20;;;26.10;64.00;;;;;;5088985;27;45674;-74
2022/08/27 01:02:45;;;;;;;6.22;5.93;;;26.00;64.30;;;;;;5107252;27;44018;-74
2022/08/27 01:05:15;;;;;;;5.53;5.32;;;26.00;64.60;;;;;;5108132;27;43913;-73
2022/08/27 01:07:44;;;;;;;5.87;5.67;;;25.90;64.50;;;;;;5107537;27;43467;-75
2022/08/27 01:10:14;;;;;;;6.43;6.13;;;25.90;64.40;;;;;;5107060;27;43980;-74
2022/08/27 01:12:42;;;;;;;6.10;5.80;;;25.80;64.80;;;;;;5107004;27;43936;-73
2022/08/27 01:15:14;;;;;;;5.60;5.40;;;25.80;64.80;;;;;;5106886;27;44027;-74
2022/08/27 01:17:48;;;;;;;6.20;6.00;;;25.80;64.90;;;;;;5081020;28;44011;-74
2022/08/27 01:20:18;;;;;;;6.40;6.10;;;25.80;64.80;;;;;;5106803;27;44059;-74
2022/08/27 01:22:52;;;;;;;5.57;5.37;;;25.80;65.20;;;;;;5085307;27;45415;-74
2022/08/27 01:25:22;;;;;;;5.67;5.47;;;25.80;65.20;;;;;;5079706;27;43972;-74
2022/08/27 01:27:50;;;;;;;5.63;5.43;;;25.90;64.90;;;;;;5087339;27;43500;-74
2022/08/27 01:30:20;;;;;;;5.70;5.40;;;26.00;64.40;;;;;;5088178;27;44082;-74
2022/08/27 01:32:49;;;;;;;5.20;5.00;;;26.10;64.10;;;;;;5106001;27;43482;-74
2022/08/27 01:35:19;;;;;;;5.50;5.30;;;26.10;63.90;;;;;;5106769;27;43446;-74
2022/08/27 01:37:49;;;;;;;5.67;5.47;;;26.10;63.80;;;;;;5091620;27;43360;-75
2022/08/27 01:40:21;;;;;;;6.07;5.77;;;26.10;64.20;;;;;;5086973;27;44098;-74
2022/08/27 01:42:50;;;;;;;5.07;4.87;;;26.00;64.30;;;;;;5086452;27;43937;-75
2022/08/27 01:45:23;;;;;;;5.50;5.30;;;26.00;64.30;;;;;;5089702;27;43390;-75
2022/08/27 01:47:51;;;;;;;5.30;5.20;;;26.00;64.30;;;;;;5106334;27;44016;-75
2022/08/27 01:50:20;;;;;;;5.10;5.00;;;25.90;64.70;;;;;;5106116;27;45147;-74
2022/08/27 01:52:49;;;;;;;5.57;5.40;;;25.90;64.90;;;;;;5087129;27;45064;-73
2022/08/27 01:55:19;;;;;;;5.20;5.00;;;25.90;64.90;;;;;;5106636;27;43858;-74
2022/08/27 01:57:49;;;;;;;5.07;4.93;;;25.80;64.60;;;;;;5089255;27;44025;-73
2022/08/27 02:00:18;;;;;;;5.10;5.00;;;25.80;65.20;;;;;;5068025;28;45575;-75
2022/08/27 02:02:46;;;;;;;5.13;5.03;;;25.80;65.30;;;;;;5086005;27;43979;-73
2022/08/27 02:05:15;;;;;;;5.07;4.97;;;25.80;65.30;;;;;;5087174;27;43962;-73
2022/08/27 02:07:43;;;;;;;5.20;5.00;;;25.70;64.90;;;;;;5086973;27;43991;-75
2022/08/27 02:10:12;;;;;;;4.87;4.77;;;25.70;65.40;;;;;;5067797;28;45850;-74
2022/08/27 02:12:40;;;;;;;5.23;5.03;;;25.70;65.40;;;;;;5086619;27;43435;-74
2022/08/27 02:15:10;;;;;;;4.88;4.78;;;25.80;65.30;;;;;;5086359;27;43959;-74
2022/08/27 02:17:38;;;;;;;5.10;5.00;;;25.90;64.80;;;;;;5068516;28;43947;-73
2022/08/27 02:20:08;;;;;;;4.80;4.60;;;26.00;64.40;;;;;;5085951;27;44999;-74
2022/08/27 02:22:36;;;;;;;4.70;4.60;;;26.10;64.30;;;;;;5086560;27;43988;-74
2022/08/27 02:25:05;;;;;;;4.95;4.80;;;26.10;64.00;;;;;;5067567;28;43440;-74
2022/08/27 02:27:37;;;;;;;5.03;4.93;;;26.10;64.10;;;;;;5086462;27;44010;-74
2022/08/27 02:30:05;;;;;;;5.57;5.25;;;26.00;64.50;;;;;;5067297;28;43949;-74
2022/08/27 02:32:35;;;;;;;4.43;4.33;;;26.00;64.60;;;;;;5086175;27;43923;-74
2022/08/27 02:35:03;;;;;;;4.90;4.70;;;25.90;64.50;;;;;;5084267;27;43415;-74
2022/08/27 02:37:31;;;;;;;4.83;4.63;;;25.90;64.40;;;;;;5106529;27;43454;-74
2022/08/27 02:40:00;;;;;;;5.15;5.05;;;25.80;64.80;;;;;;5092574;27;43971;-74
2022/08/27 02:42:29;;;;;;;4.83;4.73;;;25.80;65.10;;;;;;5105619;27;43952;-73
2022/08/27 02:44:57;;;;;;;4.90;4.80;;;25.80;65.10;;;;;;5084034;27;43392;-74
2022/08/27 02:47:25;;;;;;;4.73;4.63;;;25.80;64.80;;;;;;5086108;28;43961;-74
2022/08/27 02:49:54;;;;;;;4.70;4.57;;;25.70;65.30;;;;;;5085479;27;44138;-74
2022/08/27 02:52:22;;;;;;;4.90;4.80;;;25.70;65.40;;;;;;5085976;28;43970;-73
2022/08/27 02:54:52;;;;;;;4.07;3.97;;;25.70;65.30;;;;;;5067403;27;44041;-74
2022/08/27 02:57:20;;;;;;;4.40;4.30;;;25.70;65.00;;;;;;5105674;27;44077;-73
2022/08/27 02:59:49;;;;;;;4.50;4.40;;;25.70;65.60;;;;;;5086633;27;45613;-74
2022/08/27 03:02:18;;;;;;;4.40;4.30;;;25.70;65.60;;;;;;5105712;27;43960;-73
2022/08/27 03:04:46;;;;;;;4.60;4.43;;;25.80;65.30;;;;;;5105132;27;44011;-75
2022/08/27 03:07:15;;;;;;;4.60;4.40;;;25.90;64.90;;;;;;5106027;27;44038;-74
2022/08/27 03:09:45;;;;;;;4.30;4.20;;;26.00;64.40;;;;;;5069163;27;47308;-73
2022/08/27 03:12:14;;;;;;;4.50;4.30;;;26.10;64.20;;;;;;5089495;27;44012;-73
2022/08/27 03:14:43;;;;;;;4.40;4.30;;;26.10;64.10;;;;;;5089445;27;44010;-75
2022/08/27 03:20:11;;;;;;;4.32;4.22;;;26.00;64.50;;;;;;5045724;28;43848;-74
2022/08/27 03:22:41;;;;;;;4.60;4.50;;;25.90;64.60;;;;;;5045948;28;43933;-73
2022/08/27 03:25:09;;;;;;;4.72;4.55;;;25.90;64.60;;;;;;5071367;27;44046;-73
2022/08/27 03:27:37;;;;;;;4.50;4.40;;;25.90;64.70;;;;;;5103169;27;43514;-74
2022/08/27 03:30:06;;;;;;;4.23;4.13;;;25.80;65.10;;;;;;5070275;28;46589;-73
2022/08/27 03:32:35;;;;;;;4.60;4.50;;;25.80;65.10;;;;;;5089305;27;43937;-75
2022/08/27 03:35:03;;;;;;;4.57;4.30;;;25.80;65.00;;;;;;5088705;27;43971;-74
2022/08/27 03:37:31;;;;;;;4.28;4.18;;;25.80;65.10;;;;;;5089330;27;44067;-74
2022/08/27 03:40:00;;;;;;;4.47;4.33;;;25.70;65.50;;;;;;5108149;27;44033;-74
2022/08/27 03:42:29;;;;;;;4.10;4.00;;;25.80;65.40;;;;;;5069937;28;44367;-73
2022/08/27 03:44:57;;;;;;;4.40;4.30;;;25.90;65.30;;;;;;5088184;28;43846;-74
2022/08/27 03:47:25;;;;;;;3.90;3.80;;;26.00;64.80;;;;;;5088639;28;43368;-73
2022/08/27 03:49:52;;;;;;;4.30;4.20;;;26.00;64.50;;;;;;5087929;28;45120;-74
2022/08/27 03:52:21;;;;;;;4.20;4.10;;;26.00;64.40;;;;;;5083542;27;44774;-74
2022/08/27 03:54:49;;;;;;;4.35;4.25;;;25.90;64.40;;;;;;5069722;28;43914;-74
2022/08/27 03:57:18;;;;;;;4.57;4.47;;;25.90;64.90;;;;;;5089047;28;43942;-74
2022/08/27 03:59:46;;;;;;;4.07;3.97;;;25.90;65.00;;;;;;5087955;27;44995;-73
2022/08/27 04:02:15;;;;;;;4.40;4.30;;;25.90;64.80;;;;;;5070221;27;44695;-74
2022/08/27 04:04:43;;;;;;;4.40;4.30;;;25.80;64.60;;;;;;5070090;28;44068;-74
2022/08/27 04:07:11;;;;;;;4.13;4.03;;;25.70;65.40;;;;;;5076496;27;44294;-74
2022/08/27 04:09:38;;;;;;;4.53;4.43;;;25.70;65.40;;;;;;5088629;27;43608;-74
2022/08/27 04:12:07;;;;;;;4.30;4.20;;;25.80;65.40;;;;;;5087987;27;44493;-74
2022/08/27 04:14:36;;;;;;;4.17;4.07;;;25.70;65.00;;;;;;5102023;27;44013;-74
2022/08/27 04:17:05;;;;;;;4.50;4.40;;;25.70;65.60;;;;;;5088708;27;43971;-75
2022/08/27 04:19:33;;;;;;;4.25;4.15;;;25.70;65.60;;;;;;5088405;27;43922;-74
2022/08/27 04:22:02;;;;;;;4.43;4.27;;;25.80;65.40;;;;;;5106142;27;43908;-74
2022/08/27 04:24:30;;;;;;;4.77;4.57;;;25.90;64.90;;;;;;5108023;27;43346;-75
2022/08/27 04:26:58;;;;;;;4.33;4.23;;;26.00;64.50;;;;;;5109304;27;43908;-74
2022/08/27 04:29:26;;;;;;;4.30;4.20;;;26.10;64.40;;;;;;5128312;27;43960;-75
2022/08/27 04:31:56;;;;;;;4.50;4.40;;;26.00;64.30;;;;;;5127989;27;44137;-74
2022/08/27 04:34:24;;;;;;;4.30;4.20;;;26.00;64.50;;;;;;5110041;27;43474;-75
2022/08/27 04:36:54;;;;;;;4.32;4.22;;;25.90;64.80;;;;;;5108492;27;44010;-75
2022/08/27 04:39:22;;;;;;;4.20;4.10;;;25.90;64.80;;;;;;5108532;27;45115;-75
2022/08/27 04:41:50;;;;;;;4.80;4.35;;;25.90;64.50;;;;;;5108239;27;43956;-74
2022/08/27 04:44:18;;;;;;;4.05;3.95;;;25.80;65.00;;;;;;5122910;27;44307;-74
2022/08/27 04:46:46;;;;;;;4.40;4.30;;;25.80;65.30;;;;;;5129059;27;43842;-73
2022/08/27 04:49:17;;;;;;;4.22;4.13;;;25.80;65.30;;;;;;5121077;27;44057;-74
2022/08/27 04:51:46;;;;;;;4.25;4.15;;;25.80;64.80;;;;;;5090085;27;44435;-73
2022/08/27 04:54:15;;;;;;;4.50;4.40;;;25.70;65.10;;;;;;5105420;27;43952;-74
2022/08/27 04:56:43;;;;;;;4.70;4.60;;;25.70;65.60;;;;;;5129086;27;43975;-75
2022/08/27 04:59:11;;;;;;;4.33;4.23;;;25.70;65.40;;;;;;5128537;27;44826;-74
2022/08/27 05:01:41;;;;;;;4.73;4.53;;;25.90;65.10;;;;;;5109783;27;44623;-74
2022/08/27 05:04:12;;;;;;;4.50;4.40;;;25.90;64.70;;;;;;5127823;27;43394;-74
2022/08/27 05:06:41;;;;;;;4.80;4.70;;;26.00;64.50;;;;;;5128976;27;43948;-74
2022/08/27 05:09:09;;;;;;;4.47;4.37;;;25.90;64.30;;;;;;5128423;27;45131;-74
2022/08/27 05:11:38;;;;;;;4.70;4.50;;;25.90;64.70;;;;;;5111990;27;43409;-75
2022/08/27 05:14:08;;;;;;;4.65;4.55;;;25.90;65.00;;;;;;5089449;27;44017;-73
2022/08/27 05:16:37;;;;;;;4.70;4.50;;;25.90;65.00;;;;;;5109310;27;43926;-74
2022/08/27 05:19:07;;;;;;;4.28;4.18;;;25.80;64.70;;;;;;5089335;27;45682;-75
2022/08/27 05:21:37;;;;;;;4.53;4.32;;;25.80;64.70;;;;;;5108671;27;43917;-75
2022/08/27 05:24:07;;;;;;;4.80;4.70;;;25.70;65.40;;;;;;5108627;27;44115;-74
2022/08/27 05:26:35;;;;;;;4.45;4.35;;;25.70;65.30;;;;;;5108609;27;43368;-75
2022/08/27 05:29:03;;;;;;;4.85;4.75;;;25.80;65.10;;;;;;5108034;27;44362;-74
2022/08/27 05:31:31;;;;;;;4.50;4.40;;;25.90;64.80;;;;;;5089025;27;44681;-75
2022/08/27 05:34:00;;;;;;;4.47;4.38;;;25.90;64.50;;;;;;5125915;27;44032;-74
2022/08/27 05:36:29;;;;;;;4.55;4.45;;;25.90;64.40;;;;;;5127947;27;44025;-75
2022/08/27 05:38:58;;;;;;;4.57;4.47;;;25.90;64.30;;;;;;5123029;27;43921;-74
2022/08/27 05:41:28;;;;;;;4.95;4.75;;;25.80;64.90;;;;;;5100527;27;44552;-74
2022/08/27 05:44:02;;;;;;;4.63;4.53;;;25.80;65.10;;;;;;5127612;27;43994;-73
2022/08/27 05:46:50;;;;;;;4.50;4.40;;;25.80;64.80;;;;;;5109404;27;44291;-74
2022/08/27 05:49:18;;;;;;;4.73;4.63;;;25.70;64.60;;;;;;5127642;27;43984;-74
2022/08/27 05:51:47;;;;;;;4.50;4.40;;;25.70;65.50;;;;;;5108888;27;44870;-74
2022/08/27 05:54:18;;;;;;;4.73;4.53;;;25.70;65.50;;;;;;5119496;27;43967;-75
2022/08/27 05:56:48;;;;;;;4.70;4.57;;;25.80;65.10;;;;;;5107622;27;43845;-74
2022/08/27 06:02:17;;;;;;;4.93;4.77;;;25.90;64.70;;;;;;5040181;28;45065;-74
2022/08/27 06:04:45;;;;;;;4.60;4.50;;;25.90;65.20;;;;;;5051372;28;43455;-75
2022/08/27 06:07:14;;;;;;;4.97;4.83;;;25.90;64.30;;;;;;5093590;27;43913;-73
2022/08/27 06:09:42;;;;;;;4.60;4.50;;;25.80;65.00;;;;;;5128129;27;43766;-74
2022/08/27 06:12:11;;;;;;;4.70;4.60;;;25.80;65.10;;;;;;5108148;27;45198;-74
2022/08/27 06:14:39;;;;;;;4.57;4.47;;;25.70;64.70;;;;;;5107750;27;43960;-74
2022/08/27 06:17:07;;;;;;;5.13;5.03;;;25.70;64.30;;;;;;5096121;27;43582;-73
2022/08/27 06:19:35;;;;;;;4.83;4.73;;;25.60;65.10;;;;;;5127624;27;43954;-74
2022/08/27 06:22:03;;;;;;;5.50;5.30;;;25.70;65.10;;;;;;5119749;27;43876;-74
2022/08/27 06:24:38;;;;;;;5.50;5.40;;;25.70;64.90;;;;;;5107495;27;43825;-75
2022/08/27 06:27:06;;;;;;;5.40;5.20;;;25.80;64.40;;;;;;5107352;27;43772;-75
2022/08/27 06:29:35;;;;;;;5.37;5.27;;;25.90;64.30;;;;;;5107589;27;43957;-74
2022/08/27 06:32:04;;;;;;;5.70;5.50;;;25.90;64.50;;;;;;5089064;27;44892;-74
2022/08/27 06:34:32;;;;;;;5.33;5.03;;;25.90;64.00;;;;;;5116327;27;43982;-75
2022/08/27 06:37:00;;;;;;;5.03;4.93;;;25.90;64.40;;;;;;5108438;27;43495;-74
2022/08/27 06:39:28;;;;;;;5.90;5.67;;;25.80;64.60;;;;;;5108572;27;45692;-75
2022/08/27 06:41:58;;;;;;;5.60;5.40;;;25.80;64.60;;;;;;5119731;27;43439;-74
2022/08/27 06:44:32;;;;;;;5.45;5.35;;;25.80;64.20;;;;;;5093831;27;43981;-74
2022/08/27 06:47:03;;;;;;;5.60;5.40;;;25.70;64.90;;;;;;5110748;27;44008;-75
2022/08/27 06:49:32;;;;;;;5.32;5.13;;;25.60;65.10;;;;;;5091732;27;46753;-74
2022/08/27 06:52:00;;;;;;;5.72;5.57;;;25.60;65.80;;;;;;5091830;27;44539;-74
2022/08/27 06:54:28;;;;;;;5.50;5.30;;;25.60;64.50;;;;;;5110965;27;43392;-74
2022/08/27 06:56:58;;;;;;;5.57;5.47;;;25.60;65.20;;;;;;5111140;27;44027;-74
2022/08/27 06:59:26;;;;;;;4.90;4.80;;;25.60;65.40;;;;;;5110387;27;44017;-74
2022/08/27 07:01:54;;;;;;;5.30;5.10;;;25.70;65.20;;;;;;5110578;27;43868;-73
2022/08/27 07:04:25;;;;;;;5.03;4.93;;;25.70;64.60;;;;;;5110736;27;43358;-74
2022/08/27 07:07:00;;;;;;;5.65;5.25;;;25.90;64.50;;;;;;5110656;27;43522;-74
2022/08/27 07:09:30;;;;;;;5.37;5.23;;;25.90;64.30;;;;;;5110409;27;45077;-74
2022/08/27 07:11:58;;;;;;;5.27;5.03;;;25.80;64.20;;;;;;5096882;27;45659;-74
2022/08/27 07:14:26;;;;;;;5.40;5.20;;;25.80;64.30;;;;;;5130297;27;44009;-74
2022/08/27 07:16:55;;;;;;;5.10;5.00;;;25.70;64.70;;;;;;5130261;27;43828;-73
2022/08/27 07:19:24;;;;;;;5.15;4.97;;;25.70;64.80;;;;;;5117616;27;43889;-74
2022/08/27 07:21:52;;;;;;;5.07;4.97;;;25.60;64.30;;;;;;5091077;27;43387;-75
2022/08/27 07:24:20;;;;;;;5.30;5.18;;;25.60;64.60;;;;;;5105423;27;44010;-74
2022/08/27 07:26:49;;;;;;;5.60;5.40;;;25.60;65.20;;;;;;5091507;27;43988;-72
2022/08/27 07:29:17;;;;;;;5.18;5.00;;;25.60;65.00;;;;;;5122934;27;43600;-74
2022/08/27 07:31:45;;;;;;;5.00;4.90;;;25.70;64.90;;;;;;5123653;27;43895;-73
2022/08/27 07:34:13;;;;;;;5.23;5.13;;;25.70;64.70;;;;;;5109942;27;44055;-74
2022/08/27 07:36:42;;;;;;;4.90;4.80;;;25.70;64.50;;;;;;5110368;27;43983;-74
2022/08/27 07:39:12;;;;;;;4.90;4.80;;;25.60;64.80;;;;;;5091335;27;45803;-74
2022/08/27 07:44:25;;;;;;;4.80;4.70;;;25.60;65.00;;;;;;5109376;27;43930;-74
2022/08/27 07:46:58;;;;;;;5.03;4.93;;;25.60;64.60;;;;;;5112343;27;43990;-75
2022/08/27 07:49:27;;;;;;;5.33;5.13;;;25.60;64.60;;;;;;5120235;27;44893;-74
2022/08/27 07:51:56;;;;;;;5.43;5.23;;;25.60;65.10;;;;;;5109368;27;44062;-73
2022/08/27 07:54:24;;;;;;;5.10;5.00;;;25.60;65.20;;;;;;5109664;27;44107;-74
2022/08/27 07:56:52;;;;;;;5.00;4.80;;;25.50;64.80;;;;;;5109954;27;43478;-74
2022/08/27 07:59:22;;;;;;;5.70;5.50;;;25.50;65.30;;;;;;5109303;27;43945;-74
2022/08/27 08:01:51;;;;;;;5.97;5.67;;;25.50;65.30;;;;;;5109027;27;43396;-75
2022/08/27 08:04:21;;;;;;;5.45;5.25;;;25.50;65.20;;;;;;5119978;27;43466;-75
2022/08/27 08:06:49;;;;;;;6.50;6.20;;;25.60;64.80;;;;;;5100672;27;44334;-73
2022/08/27 08:09:20;;;;;;;6.00;5.80;;;25.70;64.30;;;;;;5109216;27;44809;-75
2022/08/27 08:11:48;;;;;;;6.03;5.82;;;25.90;64.00;;;;;;5109648;27;43825;-75
2022/08/27 08:14:16;;;;;;;5.77;5.57;;;25.80;63.80;;;;;;5095196;27;44007;-74
2022/08/27 08:16:45;;;;;;;5.55;5.40;;;25.80;63.80;;;;;;5110806;27;43789;-74
2022/08/27 08:19:13;;;;;;;6.07;5.87;;;25.70;64.30;;;;;;5110318;27;44051;-74
2022/08/27 08:21:41;;;;;;;6.32;6.13;;;25.70;64.60;;;;;;5111093;27;43464;-74
2022/08/27 08:24:09;;;;;;;6.00;5.72;;;25.60;64.50;;;;;;5113856;27;43952;-74
2022/08/27 08:26:40;;;;;;;6.47;6.17;;;25.60;64.30;;;;;;5111027;27;43553;-75
2022/08/27 08:29:08;;;;;;;5.77;5.57;;;25.60;64.90;;;;;;5116988;27;43936;-75
2022/08/27 08:31:44;;;;;;;5.80;5.60;;;25.50;65.00;;;;;;5128662;27;43339;-73
2022/08/27 08:34:17;;;;;;;6.10;5.80;;;25.50;65.00;;;;;;5129242;27;43989;-74
2022/08/27 08:36:45;;;;;;;6.80;6.50;;;25.50;64.80;;;;;;5129245;27;43830;-75
2022/08/27 08:39:21;;;;;;;6.53;6.23;;;25.50;65.20;;;;;;5090377;27;45422;-74
2022/08/27 08:41:52;;;;;;;6.30;6.10;;;25.50;65.20;;;;;;5116190;27;44231;-74
2022/08/27 08:44:25;;;;;;;7.20;6.90;;;25.50;64.60;;;;;;5128924;27;43997;-74
2022/08/27 08:46:55;;;;;;;6.60;6.30;;;25.60;64.30;;;;;;5109913;27;43889;-74
2022/08/27 08:49:30;;;;;;;7.00;6.70;;;25.80;63.90;;;;;;5112730;27;43955;-74
2022/08/27 08:52:01;;;;;;;6.50;6.20;;;25.80;63.80;;;;;;5108549;27;43964;-74
2022/08/27 08:54:30;;;;;;;6.67;6.37;;;25.80;63.70;;;;;;5126433;27;43781;-74
2022/08/27 08:57:02;;;;;;;6.53;6.13;;;25.70;63.80;;;;;;5109652;27;43574;-74
2022/08/27 08:59:31;;;;;;;6.87;6.50;;;25.70;64.10;;;;;;5116993;27;43903;-74
2022/08/27 09:01:59;;;;;;;6.43;6.23;;;25.60;64.20;;;;;;5108916;27;43409;-75
2022/08/27 09:04:27;;;;;;;6.23;5.93;;;25.60;64.20;;;;;;5108417;27;44003;-74
2022/08/27 09:06:58;;;;;;;6.77;6.50;;;25.60;64.40;;;;;;5108237;27;43349;-74
2022/08/27 09:09:27;;;;;;;6.70;6.40;;;25.50;64.60;;;;;;5108604;27;43927;-75
2022/08/27 09:11:58;;;;;;;6.30;6.10;;;25.60;64.70;;;;;;5126923;27;43918;-72
2022/08/27 09:14:33;;;;;;;6.93;6.40;;;25.50;64.50;;;;;;5116082;27;43969;-75
2022/08/27 09:17:01;;;;;;;6.20;6.00;;;25.50;64.80;;;;;;5108582;27;43424;-74
2022/08/27 09:19:37;;;;;;;6.47;6.17;;;25.50;65.00;;;;;;5108201;27;43999;-74
2022/08/27 09:22:09;;;;;;;6.53;6.28;;;25.50;64.60;;;;;;5107745;27;43903;-75
2022/08/27 09:24:47;;;;;;;7.13;6.60;;;25.60;63.70;;;;;;5108065;27;43979;-74
2022/08/27 09:27:15;;;;;;;6.80;6.50;;;25.70;63.50;;;;;;5108276;27;43948;-74
2022/08/27 09:29:49;;;;;;;6.30;5.90;;;25.80;63.60;;;;;;5107702;27;44197;-75
2022/08/27 09:32:17;;;;;;;6.77;6.47;;;25.70;63.40;;;;;;5089530;27;44451;-74
2022/08/27 09:34:45;;;;;;;6.72;6.40;;;25.70;63.60;;;;;;5099788;27;43980;-74
2022/08/27 09:37:15;;;;;;;6.72;6.32;;;25.60;64.00;;;;;;5095957;27;44033;-75
2022/08/27 09:39:48;;;;;;;5.90;5.70;;;25.60;64.10;;;;;;5098559;27;46931;-74
2022/08/27 09:42:24;;;;;;;6.63;6.43;;;25.60;64.00;;;;;;5089383;27;44725;-74
2022/08/27 09:44:54;;;;;;;5.87;5.63;;;25.50;64.60;;;;;;5108310;27;43954;-74
2022/08/27 09:47:22;;;;;;;5.80;5.60;;;25.50;64.80;;;;;;5108524;27;44273;-74
2022/08/27 09:50:01;;;;;;;5.33;5.13;;;25.50;64.70;;;;;;5107957;27;44050;-75
2022/08/27 09:52:35;;;;;;;5.23;5.13;;;25.50;64.40;;;;;;5089543;27;45673;-74
2022/08/27 09:55:05;;;;;;;5.47;5.27;;;25.40;65.10;;;;;;5089594;27;43851;-74
2022/08/27 09:57:35;;;;;;;6.10;5.68;;;25.40;65.20;;;;;;5108611;27;43850;-74
2022/08/27 10:00:07;;;;;;;5.28;5.18;;;25.50;65.00;;;;;;5123468;27;43954;-75
2022/08/27 10:02:49;;;;;;;5.43;5.23;;;25.50;65.30;;;;;;5124376;27;43982;-73
2022/08/27 10:05:18;;;;;;;5.17;5.07;;;25.40;65.40;;;;;;5127935;27;44048;-74
2022/08/27 10:07:51;;;;;;;5.50;5.23;;;25.40;65.50;;;;;;5127819;27;43456;-74
2022/08/27 10:10:21;;;;;;;4.80;4.70;;;25.50;65.10;;;;;;5127497;27;44932;-74
2022/08/27 10:12:52;;;;;;;4.90;4.80;;;25.60;64.60;;;;;;5096063;27;44686;-74
2022/08/27 10:15:22;;;;;;;4.93;4.83;;;25.70;64.40;;;;;;5120998;27;43974;-75
2022/08/27 10:17:56;;;;;;;5.43;5.33;;;25.70;64.30;;;;;;5107085;27;44050;-74
2022/08/27 10:20:27;;;;;;;5.40;5.20;;;25.70;64.10;;;;;;5107463;27;43908;-75
2022/08/27 10:23:04;;;;;;;5.00;4.90;;;25.70;64.60;;;;;;5107238;27;44221;-73
2022/08/27 10:25:35;;;;;;;5.30;5.10;;;25.60;64.70;;;;;;5107721;27;43979;-74
2022/08/27 10:28:10;;;;;;;5.03;4.93;;;25.60;64.60;;;;;;5107973;27;43928;-75
2022/08/27 10:30:47;;;;;;;4.97;4.73;;;25.60;64.40;;;;;;5088800;27;45448;-75
2022/08/27 10:33:19;;;;;;;4.87;4.77;;;25.50;65.00;;;;;;5100035;27;45789;-73
2022/08/27 10:35:53;;;;;;;4.70;4.60;;;25.50;65.10;;;;;;5095535;27;43793;-74
2022/08/27 10:38:22;;;;;;;4.63;4.53;;;25.50;65.00;;;;;;5107622;27;43914;-73
2022/08/27 10:40:53;;;;;;;6.00;5.70;;;25.50;64.70;;;;;;5126117;27;43954;-74
2022/08/27 10:43:30;;;;;;;7.13;6.70;;;25.40;65.10;;;;;;5113647;27;43951;-74
2022/08/27 10:46:02;;;;;;;7.57;6.43;;;25.40;64.50;;;;;;5106792;27;43964;-75
2022/08/27 10:48:34;;;;;;;12.63;6.90;;;25.50;64.40;;;;;;5107507;27;43963;-74
2022/08/27 10:51:05;;;;;;;6.27;5.70;;;25.60;64.30;;;;;;5106136;27;45054;-74
2022/08/27 10:53:36;;;;;;;8.33;5.90;;;25.70;64.20;;;;;;5094499;27;44628;-75
2022/08/27 10:56:13;;;;;;;6.07;5.85;;;25.80;64.10;;;;;;5106669;27;44414;-74
2022/08/27 10:58:58;;;;;;;6.30;5.90;;;25.70;63.90;;;;;;5111484;27;44203;-74
2022/08/27 11:01:34;;;;;;;5.88;5.60;;;25.70;64.50;;;;;;5088177;27;46750;-73
2022/08/27 11:04:04;;;;;;;6.03;5.50;;;25.60;64.60;;;;;;5106350;27;44062;-74
2022/08/27 11:06:35;;;;;;;5.80;5.60;;;25.60;64.50;;;;;;5106929;27;44014;-74
2022/08/27 11:09:05;;;;;;;5.40;5.20;;;25.60;64.30;;;;;;5106965;27;43754;-75
2022/08/27 11:11:41;;;;;;;5.53;5.23;;;25.50;65.20;;;;;;5106382;27;43850;-74
2022/08/27 11:14:30;;;;;;;5.32;5.13;;;25.50;65.20;;;;;;5106362;27;43966;-73
2022/08/27 11:17:03;;;;;;;5.30;5.10;;;25.50;64.90;;;;;;5106132;27;43435;-74
2022/08/27 11:19:34;;;;;;;5.17;4.97;;;25.40;64.80;;;;;;5106666;27;43936;-74
2022/08/27 11:22:05;;;;;;;5.40;5.10;;;25.40;65.50;;;;;;5098612;27;45602;-74
2022/08/27 11:24:41;;;;;;;5.30;4.87;;;25.40;65.50;;;;;;5106747;27;44045;-74
2022/08/27 11:27:10;;;;;;;5.15;4.78;;;25.50;65.00;;;;;;5089626;27;43419;-74
2022/08/27 11:29:40;;;;;;;28.63;9.10;;;25.60;64.60;;;;;;5108665;27;43536;-74
2022/08/27 11:32:18;;;;;;;19.15;8.73;;;25.70;63.60;;;;;;5129762;27;45109;-74
2022/08/27 11:34:47;;;;;;;15.82;8.85;;;25.60;63.70;;;;;;5129960;27;43470;-74
2022/08/27 11:37:26;;;;;;;28.43;10.03;;;25.60;63.80;;;;;;5129935;27;43406;-74
2022/08/27 11:40:14;;;;;;;42.67;10.07;;;25.50;62.80;;;;;;5129588;27;44074;-74
2022/08/27 11:42:44;;;;;;;18.15;9.82;;;25.50;63.30;;;;;;5109570;27;46002;-74
2022/08/27 11:45:16;;;;;;;52.30;11.50;;;25.40;63.70;;;;;;5091135;27;43979;-73
2022/08/27 11:47:54;;;;;;;67.53;13.10;;;25.40;63.80;;;;;;5110256;27;43396;-74
2022/08/27 11:50:23;;;;;;;35.57;10.70;;;25.30;62.60;;;;;;5092074;27;43798;-74
2022/08/27 11:52:56;;;;;;;11.50;9.48;;;25.30;62.50;;;;;;5109680;27;44003;-73
2022/08/27 11:55:27;;;;;;;9.80;8.80;;;25.30;62.20;;;;;;5110100;27;44068;-74
2022/08/27 11:58:09;;;;;;;9.30;8.50;;;25.40;61.90;;;;;;5115369;27;43825;-74
2022/08/27 12:00:39;;;;;;;9.90;8.70;;;25.40;61.90;;;;;;5124036;27;43907;-74
2022/08/27 12:03:10;;;;;;;21.48;8.77;;;25.40;62.50;;;;;;5111507;27;45565;-74
2022/08/27 12:05:41;;;;;;;15.87;8.83;;;25.40;62.90;;;;;;5111657;27;45941;-74
2022/08/27 12:08:27;;;;;;;12.00;8.97;;;25.30;62.90;;;;;;5115870;27;43983;-73
2022/08/27 12:11:02;;;;;;;9.63;8.50;;;25.30;63.30;;;;;;5110350;27;43508;-74
2022/08/27 12:13:35;;;;;;;12.07;8.33;;;25.30;63.50;;;;;;5114681;27;44033;-74
2022/08/27 12:16:11;;;;;;;12.03;7.90;;;25.30;63.60;;;;;;5105873;27;44621;-73
2022/08/27 12:18:46;;;;;;;8.97;7.83;;;25.20;64.50;;;;;;5111372;27;43558;-75
2022/08/27 12:21:20;;;;;;;8.20;7.50;;;25.20;64.60;;;;;;5095882;27;43467;-73
2022/08/27 12:24:00;;;;;;;7.17;6.67;;;25.20;64.20;;;;;;5128321;27;43961;-73
2022/08/27 12:26:31;;;;;;;6.97;6.47;;;25.20;64.30;;;;;;5091711;27;44765;-74
2022/08/27 12:29:22;;;;;;;8.13;6.83;;;25.20;64.70;;;;;;5126459;27;44270;-74
2022/08/27 12:31:53;;;;;;;12.33;7.17;;;25.30;64.80;;;;;;5104231;27;43831;-74
2022/08/27 12:34:23;;;;;;;8.07;7.33;;;25.40;64.50;;;;;;5109077;27;43935;-75
2022/08/27 12:36:53;;;;;;;7.37;6.60;;;25.50;64.00;;;;;;5109593;27;43378;-73
2022/08/27 12:39:27;;;;;;;6.60;6.10;;;25.50;63.90;;;;;;5096226;27;44434;-74
2022/08/27 12:41:55;;;;;;;6.67;6.27;;;25.50;63.80;;;;;;5108085;27;43990;-75
2022/08/27 12:44:25;;;;;;;7.00;6.30;;;25.50;64.00;;;;;;5109026;27;43733;-74
2022/08/27 12:46:54;;;;;;;8.33;6.33;;;25.50;64.40;;;;;;5108980;27;44139;-74
2022/08/27 12:49:26;;;;;;;7.20;6.70;;;25.50;64.40;;;;;;5090520;27;43963;-74
2022/08/27 12:52:14;;;;;;;7.07;6.57;;;25.40;64.10;;;;;;5101968;27;43915;-74
2022/08/27 12:54:55;;;;;;;8.10;7.03;;;25.40;64.00;;;;;;5128489;27;43764;-74
2022/08/27 12:57:25;;;;;;;6.77;6.30;;;25.40;64.30;;;;;;5128717;27;44008;-74
2022/08/27 13:00:09;;;;;;;6.80;6.20;;;25.30;64.40;;;;;;5121065;27;43442;-74
2022/08/27 13:02:59;;;;;;;6.93;6.30;;;25.40;64.50;;;;;;5089056;27;43922;-74
2022/08/27 13:05:37;;;;;;;7.17;6.57;;;25.30;64.30;;;;;;5121040;27;44939;-73
2022/08/27 13:08:05;;;;;;;6.53;6.10;;;25.30;64.50;;;;;;5115311;27;43987;-73
2022/08/27 13:10:33;;;;;;;6.67;6.20;;;25.40;64.50;;;;;;5110100;27;44285;-74